Terminal Aerodrome Forecast
Issued by NWS Binghamton, NY

Home | Current Version | Previous Version | Text Only | Print | Product List | Glossary On
Versions: 1 2 3 4 5 6 7 8 9 10 11 12 13 14 15 16 17 18 19 20
000
FTUS41 KBGM 201100
TAFSYR
TAF
KSYR 201125Z 2012/2112 16010G20KT P6SM SCT050
     FM201500 21012G24KT P6SM BKN050
     FM202100 21012G20KT P6SM SCT050
     FM210000 18012KT P6SM FEW050 SCT250
     FM211000 18010KT P6SM BKN150=

USA.gov is the U.S. government's official web portal to all federal, state and local government web resources and services.